Time;durP1;ratioP1;P1;durP2;ratioP2;P2;SDS_P1;SDS_P2;PMS_P1;PMS_P2;Temp;Humidity;BMP_temperature;BMP_pressure;BME280_temperature;BME280_humidity;BME280_pressure;Samples;Min_cycle;Max_cycle;Signal;HPM_P1;HPM_P2
2022/12/07 00:02:16;;;;;;;;;;;;;;;18.22;59.65;100581.34;2292213;77;50283;-73
2022/12/07 00:05:18;;;;;;;;;;;;;;;18.33;59.47;100577.38;2267195;77;50292;-74
2022/12/07 00:08:19;;;;;;;;;;;;;;;18.42;59.21;100583.81;2267015;77;51840;-73
2022/12/07 00:11:21;;;;;;;;;;;;;;;18.43;59.10;100587.33;2267199;77;51571;-73
2022/12/07 00:14:23;;;;;;;;;;;;;;;18.43;59.07;100581.97;2263058;77;51480;-73
2022/12/07 00:17:24;;;;;;;;;;;;;;;18.41;59.18;100574.09;2288593;77;49955;-73
2022/12/07 00:20:26;;;;;;;;;;;;;;;18.38;59.29;100574.47;2249258;78;52711;-75
2022/12/07 00:23:27;;;;;;;;;;;;;;;18.36;59.34;100572.48;2287724;78;50738;-73
2022/12/07 00:26:31;;;;;;;;;;;;;;;18.33;59.33;100578.20;2287852;78;50639;-73
2022/12/07 00:29:32;;;;;;;;;;;;;;;18.31;59.47;100571.37;2286612;77;52225;-74
2022/12/07 00:32:34;;;;;;;;;;;;;;;18.26;59.48;100567.89;2274288;78;50640;-74
2022/12/07 00:35:35;;;;;;;;;;;;;;;18.19;59.71;100562.97;2274221;78;51529;-74
2022/12/07 00:38:37;;;;;;;;;;;;;;;18.19;59.85;100558.95;2253732;77;51450;-73
2022/12/07 00:41:39;;;;;;;;;;;;;;;18.25;59.83;100559.55;2249893;79;51561;-75
2022/12/07 00:44:40;;;;;;;;;;;;;;;18.33;59.77;100549.25;2266719;77;51458;-74
2022/12/07 00:47:42;;;;;;;;;;;;;;;18.43;59.47;100551.16;2216034;78;52545;-73
2022/12/07 00:50:43;;;;;;;;;;;;;;;18.42;59.32;100544.97;2249978;79;50863;-73
2022/12/07 00:53:45;;;;;;;;;;;;;;;18.42;59.36;100546.31;2249790;79;50234;-74
2022/12/07 00:56:47;;;;;;;;;;;;;;;18.39;59.38;100547.99;2249963;79;50797;-74
2022/12/07 00:59:48;;;;;;;;;;;;;;;18.38;59.39;100542.33;2234511;79;51752;-75
2022/12/07 01:02:50;;;;;;;;;;;;;;;18.34;59.44;100547.75;2234311;79;51513;-74
2022/12/07 01:05:52;;;;;;;;;;;;;;;18.31;59.50;100534.70;2249867;79;50347;-73
2022/12/07 01:08:54;;;;;;;;;;;;;;;18.26;59.60;100538.43;2249989;79;51490;-73
2022/12/07 01:11:55;;;;;;;;;;;;;;;18.22;59.59;100533.13;2232681;79;51118;-74
2022/12/07 01:14:57;;;;;;;;;;;;;;;18.19;59.77;100530.31;2270579;78;51537;-74
2022/12/07 01:17:58;;;;;;;;;;;;;;;18.20;59.96;100533.82;2287793;78;50176;-74
2022/12/07 01:21:04;;;;;;;;;;;;;;;18.31;59.73;100527.17;2287781;78;50409;-74
2022/12/07 01:24:06;;;;;;;;;;;;;;;18.39;59.47;100529.23;2261230;78;51424;-74
2022/12/07 01:27:08;;;;;;;;;;;;;;;18.40;59.32;100524.74;2287794;78;52229;-74
2022/12/07 01:30:10;;;;;;;;;;;;;;;18.40;59.33;100520.72;2260243;78;50272;-74
2022/12/07 01:33:11;;;;;;;;;;;;;;;18.38;59.29;100513.38;2287704;77;51545;-73
2022/12/07 01:36:14;;;;;;;;;;;;;;;18.35;59.43;100516.42;2259991;78;51119;-74
2022/12/07 01:39:16;;;;;;;;;;;;;;;18.31;59.50;100514.61;2260518;78;51706;-74
2022/12/07 01:42:18;;;;;;;;;;;;;;;18.27;59.59;100516.01;2260451;77;51536;-74
2022/12/07 01:45:21;;;;;;;;;;;;;;;18.23;59.66;100511.51;2289133;77;50708;-74
2022/12/07 01:48:24;;;;;;;;;;;;;;;18.19;59.60;100507.55;2261321;78;51317;-75
2022/12/07 01:51:26;;;;;;;;;;;;;;;18.14;59.79;100510.47;2287746;78;50495;-74
2022/12/07 01:54:27;;;;;;;;;;;;;;;18.14;59.96;100505.11;2287603;78;50726;-73
2022/12/07 01:57:29;;;;;;;;;;;;;;;18.18;59.95;100491.66;2287460;78;51443;-74
2022/12/07 02:00:30;;;;;;;;;;;;;;;18.26;59.86;100491.56;2249268;78;50951;-74
2022/12/07 02:03:36;;;;;;;;;;;;;;;18.34;59.70;100483.94;2274190;77;51373;-74
2022/12/07 02:06:38;;;;;;;;;;;;;;;18.38;59.50;100479.89;2287732;78;51575;-73
2022/12/07 02:09:40;;;;;;;;;;;;;;;18.38;59.45;100487.41;2287816;78;50323;-74
2022/12/07 02:12:41;;;;;;;;;;;;;;;18.37;59.46;100474.19;2248755;77;51199;-73
2022/12/07 02:15:54;;;;;;;;;;;;;;;18.34;59.48;100478.10;2287497;78;51461;-74
2022/12/07 02:19:14;;;;;;;;;;;;;;;18.31;59.50;100473.09;2287215;76;50746;-72
2022/12/07 02:22:20;;;;;;;;;;;;;;;18.28;59.53;100478.30;2287754;76;51526;-73
2022/12/07 02:25:36;;;;;;;;;;;;;;;18.23;59.62;100478.03;2260751;78;50116;-72
2022/12/07 02:28:39;;;;;;;;;;;;;;;18.18;59.70;100471.58;2287767;78;50461;-73
2022/12/07 02:31:45;;;;;;;;;;;;;;;18.11;59.93;100463.95;2286626;78;50162;-73
2022/12/07 02:34:54;;;;;;;;;;;;;;;18.13;60.06;100463.27;2287589;77;50738;-74
2022/12/07 02:37:58;;;;;;;;;;;;;;;18.19;60.03;100458.02;2275488;78;50503;-73
2022/12/07 02:41:06;;;;;;;;;;;;;;;18.31;59.68;100460.21;2249934;78;50283;-73
2022/12/07 02:44:09;;;;;;;;;;;;;;;18.32;59.61;100456.53;2272872;77;51695;-74
2022/12/07 02:47:11;;;;;;;;;;;;;;;18.30;59.55;100455.37;2258919;78;50486;-74
2022/12/07 02:50:12;;;;;;;;;;;;;;;18.28;59.68;100452.03;2235899;78;52621;-74
2022/12/07 02:53:31;;;;;;;;;;;;;;;18.27;59.69;100445.03;2248811;78;51423;-74
2022/12/07 02:56:45;;;;;;;;;;;;;;;18.22;59.70;100449.60;2195361;80;51239;-73
2022/12/07 02:59:49;;;;;;;;;;;;;;;18.18;59.75;100443.45;2194886;80;51521;-73
2022/12/07 03:02:54;;;;;;;;;;;;;;;18.15;59.78;100442.48;2194451;80;52366;-73
2022/12/07 03:06:06;;;;;;;;;;;;;;;18.13;59.79;100431.13;2170614;80;51677;-74
2022/12/07 03:09:12;;;;;;;;;;;;;;;18.09;59.97;100429.34;2193878;80;50299;-72
2022/12/07 03:12:15;;;;;;;;;;;;;;;18.10;60.13;100429.66;2194626;80;50680;-73
2022/12/07 03:15:18;;;;;;;;;;;;;;;18.14;60.12;100424.27;2206934;80;52490;-75
2022/12/07 03:18:20;;;;;;;;;;;;;;;18.22;60.01;100421.99;2210249;80;50433;-74
2022/12/07 03:21:24;;;;;;;;;;;;;;;18.31;59.75;100414.16;2210068;80;51670;-73
2022/12/07 03:24:27;;;;;;;;;;;;;;;18.35;59.53;100403.92;2207072;80;50818;-74
2022/12/07 03:27:36;;;;;;;;;;;;;;;18.34;59.50;100401.76;2210073;80;52561;-74
2022/12/07 03:30:55;;;;;;;;;;;;;;;18.33;59.50;100400.59;2246828;78;50718;-74
2022/12/07 03:34:00;;;;;;;;;;;;;;;18.31;59.50;100394.08;2287054;78;51432;-74
2022/12/07 03:37:06;;;;;;;;;;;;;;;18.28;59.56;100389.09;2287774;78;51523;-75
2022/12/07 03:40:15;;;;;;;;;;;;;;;18.24;59.62;100384.64;2287803;78;51515;-74
2022/12/07 03:43:17;;;;;;;;;;;;;;;18.19;59.73;100371.48;2282863;77;51513;-74
2022/12/07 03:46:27;;;;;;;;;;;;;;;18.15;59.71;100367.00;2279656;78;50267;-74
2022/12/07 03:49:30;;;;;;;;;;;;;;;18.10;59.91;100361.89;2287850;78;50434;-73
2022/12/07 03:52:33;;;;;;;;;;;;;;;18.09;60.10;100354.38;2261341;77;51127;-73
2022/12/07 03:55:39;;;;;;;;;;;;;;;18.17;60.02;100349.42;2280116;78;51595;-72
2022/12/07 03:58:40;;;;;;;;;;;;;;;18.31;59.72;100343.19;2287761;78;51550;-74
2022/12/07 04:01:43;;;;;;;;;;;;;;;18.31;59.60;100344.52;2287768;78;51463;-74
2022/12/07 04:04:44;;;;;;;;;;;;;;;18.31;59.55;100335.15;2260094;78;50162;-74
2022/12/07 04:07:46;;;;;;;;;;;;;;;18.28;59.51;100331.00;2287765;78;51420;-74
2022/12/07 04:10:48;;;;;;;;;;;;;;;18.27;59.54;100332.55;2287672;78;51642;-74
2022/12/07 04:17:09;;;;;;;;;;;;;;;18.22;59.62;100324.25;2288453;78;22942;-74
2022/12/07 04:20:11;;;;;;;;;;;;;;;18.18;59.68;100324.29;2288081;78;51611;-74
2022/12/07 04:23:13;;;;;;;;;;;;;;;18.13;59.75;100320.83;2288259;78;50486;-75
2022/12/07 04:26:14;;;;;;;;;;;;;;;18.07;59.91;100306.87;2288197;78;50497;-74
2022/12/07 04:29:16;;;;;;;;;;;;;;;18.06;60.05;100313.25;2274605;78;51162;-75
2022/12/07 04:32:17;;;;;;;;;;;;;;;18.09;60.19;100307.52;2274674;78;50469;-76
2022/12/07 04:35:19;;;;;;;;;;;;;;;18.16;60.08;100309.77;2287961;78;51514;-75
2022/12/07 04:38:20;;;;;;;;;;;;;;;18.27;59.85;100308.44;2271977;78;51444;-74
2022/12/07 04:41:28;;;;;;;;;;;;;;;18.29;59.67;100298.37;2213652;79;52376;-73
2022/12/07 04:44:30;;;;;;;;;;;;;;;18.29;59.63;100294.36;2278435;77;50685;-75
2022/12/07 04:47:32;;;;;;;;;;;;;;;18.28;59.77;100290.00;2288586;77;50553;-75
2022/12/07 04:50:33;;;;;;;;;;;;;;;18.26;59.71;100288.02;2287969;78;50738;-74
2022/12/07 04:53:35;;;;;;;;;;;;;;;18.23;59.72;100287.88;2274365;77;51893;-75
2022/12/07 04:56:36;;;;;;;;;;;;;;;18.19;59.71;100285.28;2288107;78;51526;-75
2022/12/07 04:59:38;;;;;;;;;;;;;;;18.15;59.80;100276.47;2287920;78;50754;-75
2022/12/07 05:02:39;;;;;;;;;;;;;;;18.12;59.76;100280.36;2288103;78;51519;-75
2022/12/07 05:05:41;;;;;;;;;;;;;;;18.08;59.79;100277.72;2274337;78;52052;-75
2022/12/07 05:08:43;;;;;;;;;;;;;;;18.08;60.03;100279.58;2274654;78;50235;-74
2022/12/07 05:11:44;;;;;;;;;;;;;;;18.12;60.08;100272.84;2287886;78;51466;-74
2022/12/07 05:14:46;;;;;;;;;;;;;;;18.20;59.99;100269.52;2274669;77;50327;-75
2022/12/07 05:17:48;;;;;;;;;;;;;;;18.29;59.89;100279.62;2259723;78;51753;-74
2022/12/07 05:20:50;;;;;;;;;;;;;;;18.30;59.81;100272.41;2260841;78;50637;-75
2022/12/07 05:23:52;;;;;;;;;;;;;;;18.30;59.75;100265.20;2283431;76;50815;-74
2022/12/07 05:26:54;;;;;;;;;;;;;;;18.29;59.72;100268.91;2283368;77;50823;-73
2022/12/07 05:29:55;;;;;;;;;;;;;;;18.27;59.70;100265.59;2258920;78;51010;-73
2022/12/07 05:32:57;;;;;;;;;;;;;;;18.23;59.78;100266.46;2260028;78;51756;-73
2022/12/07 05:35:58;;;;;;;;;;;;;;;18.21;59.68;100264.51;2233140;76;51593;-75
2022/12/07 05:39:00;;;;;;;;;;;;;;;18.16;59.66;100259.38;2237901;78;51756;-76
2022/12/07 05:42:14;;;;;;;;;;;;;;;18.11;59.68;100264.47;2236811;79;51751;-76
2022/12/07 05:45:15;;;;;;;;;;;;;;;18.02;59.91;100255.22;2283284;78;50435;-76
2022/12/07 05:48:17;;;;;;;;;;;;;;;18.03;60.02;100252.03;2251654;79;51476;-76
2022/12/07 05:51:18;;;;;;;;;;;;;;;18.09;60.00;100241.92;2237369;78;50737;-74
2022/12/07 05:54:20;;;;;;;;;;;;;;;18.17;59.99;100245.81;2239696;79;51230;-76
2022/12/07 05:57:22;;;;;;;;;;;;;;;18.26;59.86;100246.50;2239465;79;50880;-76
2022/12/07 06:00:24;;;;;;;;;;;;;;;18.27;59.64;100250.86;2252435;78;51568;-76
2022/12/07 06:03:26;;;;;;;;;;;;;;;18.27;59.61;100240.14;2240244;79;50640;-76
2022/12/07 06:06:28;;;;;;;;;;;;;;;18.25;59.60;100240.33;2236863;79;51263;-76
2022/12/07 06:09:29;;;;;;;;;;;;;;;18.24;59.61;100227.97;2239258;79;50546;-76
2022/12/07 06:12:33;;;;;;;;;;;;;;;18.19;59.63;100223.70;2241690;78;50735;-74
2022/12/07 06:15:38;;;;;;;;;;;;;;;18.14;59.72;100218.08;2220473;78;52454;-74
2022/12/07 06:18:40;;;;;;;;;;;;;;;18.13;59.81;100215.06;2237525;79;49914;-73
2022/12/07 06:21:41;;;;;;;;;;;;;;;18.09;59.86;100208.97;2249285;79;50276;-74
2022/12/07 06:24:44;;;;;;;;;;;;;;;18.04;60.00;100209.53;2249219;78;51485;-74
2022/12/07 06:27:45;;;;;;;;;;;;;;;18.04;60.03;100206.34;2249316;78;50688;-74
2022/12/07 06:30:47;;;;;;;;;;;;;;;18.12;59.85;100205.91;2213487;79;51063;-74
2022/12/07 06:33:48;;;;;;;;;;;;;;;18.21;59.57;100208.27;2236296;79;51647;-73
2022/12/07 06:36:54;;;;;;;;;;;;;;;18.23;59.35;100200.85;2249153;79;51427;-74
2022/12/07 06:39:56;;;;;;;;;;;;;;;18.23;59.25;100199.52;2239258;79;50312;-74
2022/12/07 06:42:57;;;;;;;;;;;;;;;18.22;59.09;100203.73;2246791;78;51258;-74
2022/12/07 06:45:59;;;;;;;;;;;;;;;18.19;59.03;100199.59;2262131;78;49914;-74
2022/12/07 06:49:01;;;;;;;;;;;;;;;18.19;58.93;100204.13;2249262;79;50752;-74
2022/12/07 06:52:04;;;;;;;;;;;;;;;18.17;58.93;100207.50;2249206;79;51455;-73
2022/12/07 06:55:06;;;;;;;;;;;;;;;18.14;58.97;100205.21;2237271;79;22328;-71
2022/12/07 06:58:07;;;;;;;;;;;;;;;18.11;59.08;100205.56;2236604;78;50316;-72
2022/12/07 07:01:10;;;;;;;;;;;;;;;18.03;59.35;100198.00;2249027;77;51620;-70
2022/12/07 07:04:12;;;;;;;;;;;;;;;18.03;59.47;100197.14;2248482;78;50851;-71
2022/12/07 07:07:14;;;;;;;;;;;;;;;18.08;59.44;100197.92;2237544;79;51312;-71
2022/12/07 07:10:15;;;;;;;;;;;;;;;18.12;59.30;100205.91;2237675;79;50475;-71
2022/12/07 07:13:17;;;;;;;;;;;;;;;18.20;59.09;100197.73;2261823;78;50376;-71
2022/12/07 07:16:18;;;;;;;;;;;;;;;18.22;59.00;100195.70;2278204;78;51259;-71
2022/12/07 07:19:20;;;;;;;;;;;;;;;18.20;58.95;100200.41;2305157;77;52389;-72
2022/12/07 07:22:21;;;;;;;;;;;;;;;18.20;58.92;100195.06;2269640;77;51493;-72
2022/12/07 07:25:23;;;;;;;;;;;;;;;18.18;58.93;100207.80;2274924;77;51998;-72
2022/12/07 07:28:25;;;;;;;;;;;;;;;18.14;58.98;100203.36;2288518;78;50180;-72
2022/12/07 07:31:26;;;;;;;;;;;;;;;18.10;59.04;100203.92;2249899;78;51701;-72
2022/12/07 07:34:28;;;;;;;;;;;;;;;18.04;59.15;100207.67;2251635;78;50781;-71
2022/12/07 07:37:29;;;;;;;;;;;;;;;17.98;59.34;100208.45;2250558;79;51573;-71
2022/12/07 07:40:31;;;;;;;;;;;;;;;17.93;59.49;100204.17;2265484;77;51558;-72
2022/12/07 07:43:32;;;;;;;;;;;;;;;17.96;59.44;100195.75;2244959;78;51589;-71
2022/12/07 07:46:34;;;;;;;;;;;;;;;18.01;59.36;100192.00;2238931;78;51542;-71
2022/12/07 07:49:36;;;;;;;;;;;;;;;18.09;59.18;100189.71;2275786;78;50384;-71
2022/12/07 07:52:39;;;;;;;;;;;;;;;18.15;59.01;100194.80;2275639;78;51526;-71
2022/12/07 07:55:41;;;;;;;;;;;;;;;18.17;58.88;100199.47;2225105;79;50798;-72
2022/12/07 07:58:42;;;;;;;;;;;;;;;18.18;58.80;100193.91;2275942;78;50248;-72
2022/12/07 08:01:44;;;;;;;;;;;;;;;18.17;58.78;100200.80;2250723;78;50235;-71
2022/12/07 08:04:45;;;;;;;;;;;;;;;18.16;58.77;100201.32;2250525;78;50305;-71
2022/12/07 08:07:47;;;;;;;;;;;;;;;18.14;58.81;100202.53;2256523;78;50258;-72
2022/12/07 08:10:49;;;;;;;;;;;;;;;18.09;58.87;100194.24;2260037;78;51591;-71
2022/12/07 08:13:50;;;;;;;;;;;;;;;18.04;58.97;100199.64;2290394;77;50696;-71
2022/12/07 08:16:52;;;;;;;;;;;;;;;18.01;59.09;100201.38;2288619;78;50728;-72
2022/12/07 08:19:54;;;;;;;;;;;;;;;17.94;59.29;100211.17;2275131;78;52720;-72
2022/12/07 08:22:55;;;;;;;;;;;;;;;17.96;59.27;100211.00;2275127;78;51431;-71
2022/12/07 08:25:58;;;;;;;;;;;;;;;18.00;59.20;100213.08;2294617;76;50748;-71
2022/12/07 08:29:00;;;;;;;;;;;;;;;18.05;59.08;100205.30;2300456;77;51403;-72
2022/12/07 08:32:01;;;;;;;;;;;;;;;18.13;58.93;100212.39;2247177;78;49838;-71
2022/12/07 08:35:03;;;;;;;;;;;;;;;18.18;58.75;100207.29;2275679;77;50274;-71
2022/12/07 08:38:05;;;;;;;;;;;;;;;18.20;58.61;100213.80;2275396;77;51505;-71
2022/12/07 08:41:06;;;;;;;;;;;;;;;18.22;58.52;100215.27;2238482;77;50332;-72
2022/12/07 08:44:08;;;;;;;;;;;;;;;18.20;58.54;100216.48;2249011;77;49627;-71
2022/12/07 08:47:09;;;;;;;;;;;;;;;18.18;58.53;100223.36;2263410;78;50284;-71
2022/12/07 08:50:11;;;;;;;;;;;;;;;18.15;58.54;100222.92;2288606;78;50749;-71
2022/12/07 08:53:13;;;;;;;;;;;;;;;18.13;58.57;100221.76;2288842;78;51468;-72
2022/12/07 08:56:14;;;;;;;;;;;;;;;18.10;58.55;100224.83;2274003;78;53682;-71
2022/12/07 08:59:16;;;;;;;;;;;;;;;18.05;58.69;100224.56;2288851;78;51553;-71
2022/12/07 09:02:18;;;;;;;;;;;;;;;17.98;59.02;100234.36;2293848;77;51627;-71
2022/12/07 09:05:19;;;;;;;;;;;;;;;17.97;59.00;100232.72;2303801;76;51360;-71
2022/12/07 09:08:21;;;;;;;;;;;;;;;18.02;58.83;100237.81;2242623;77;52618;-71
2022/12/07 09:11:23;;;;;;;;;;;;;;;18.11;58.69;100244.39;2300942;77;51598;-71
2022/12/07 09:14:25;;;;;;;;;;;;;;;18.18;58.59;100239.94;2274811;77;51329;-71
2022/12/07 09:17:26;;;;;;;;;;;;;;;18.32;58.59;100239.58;2288244;77;51329;-71
2022/12/07 09:20:28;;;;;;;;;;;;;;;18.40;58.39;100243.47;2267044;77;51458;-70
2022/12/07 09:23:29;;;;;;;;;;;;;;;18.42;58.28;100250.29;2274043;77;50275;-71
2022/12/07 09:26:31;;;;;;;;;;;;;;;18.38;58.36;100253.02;2254849;78;51547;-72
2022/12/07 09:29:32;;;;;;;;;;;;;;;18.34;58.69;100249.09;2249343;78;51558;-70
2022/12/07 09:32:34;;;;;;;;;;;;;;;18.30;58.73;100253.16;2222082;77;51192;-71
2022/12/07 09:35:36;;;;;;;;;;;;;;;18.27;58.89;100253.54;2287939;78;50139;-71
2022/12/07 09:38:37;;;;;;;;;;;;;;;18.22;58.96;100251.94;2295928;77;50655;-71
2022/12/07 09:41:39;;;;;;;;;;;;;;;18.15;59.15;100259.06;2261522;77;50679;-70
2022/12/07 09:44:41;;;;;;;;;;;;;;;18.07;59.36;100260.02;2261218;78;51793;-71
2022/12/07 09:47:43;;;;;;;;;;;;;;;18.14;59.35;100253.41;2252443;78;49983;-71
2022/12/07 09:50:44;;;;;;;;;;;;;;;18.24;59.12;100267.31;2235993;79;50087;-71
2022/12/07 09:53:46;;;;;;;;;;;;;;;18.31;58.95;100268.70;2260008;78;52502;-71
2022/12/07 09:56:47;;;;;;;;;;;;;;;18.36;58.76;100276.48;2274866;78;51669;-72
2022/12/07 09:59:49;;;;;;;;;;;;;;;18.43;58.50;100272.03;2288363;78;51515;-71
2022/12/07 10:02:55;;;;;;;;;;;;;;;18.43;58.39;100270.69;2274709;77;51447;-71
2022/12/07 10:05:57;;;;;;;;;;;;;;;18.41;58.38;100277.26;2259757;77;50315;-71
2022/12/07 10:08:58;;;;;;;;;;;;;;;18.37;58.47;100275.97;2264801;76;51059;-71
2022/12/07 10:12:01;;;;;;;;;;;;;;;18.35;58.50;100274.02;2259450;78;51536;-71
2022/12/07 10:15:03;;;;;;;;;;;;;;;18.32;58.48;100280.58;2294352;77;50051;-71
2022/12/07 10:18:06;;;;;;;;;;;;;;;18.30;58.41;100277.26;2299007;77;50841;-71
2022/12/07 10:21:10;;;;;;;;;;;;;;;18.27;58.42;100277.13;2261413;78;52785;-73
2022/12/07 10:24:19;;;;;;;;;;;;;;;18.16;58.74;100273.63;2290820;77;51514;-73
2022/12/07 10:27:18;;;;;;;;;;;;;;;18.13;58.88;100273.97;2295761;77;22411;-73
2022/12/07 10:30:20;;;;;;;;;;;;;;;17.16;47.76;100271.44;2285704;77;51500;-72
2022/12/07 10:33:29;;;;;;;;;;;;;;;16.84;48.68;100267.25;2243140;78;51450;-73
2022/12/07 10:36:35;;;;;;;;;;;;;;;17.16;50.05;100273.63;2266318;78;50772;-73
2022/12/07 10:39:52;;;;;;;;;;;;;;;17.48;50.73;100270.27;2285314;77;50315;-71
2022/12/07 10:43:03;;;;;;;;;;;;;;;17.74;51.29;100269.78;2255585;77;50066;-71
2022/12/07 10:46:10;;;;;;;;;;;;;;;17.83;51.84;100264.69;2224962;79;51286;-72
2022/12/07 10:49:16;;;;;;;;;;;;;;;17.93;52.47;100275.11;2284256;76;50834;-71
2022/12/07 10:52:19;;;;;;;;;;;;;;;17.98;52.90;100274.03;2255311;78;52548;-71
2022/12/07 10:55:39;;;;;;;;;;;;;;;18.11;53.06;100271.16;2288190;78;50668;-72
2022/12/07 10:58:45;;;;;;;;;;;;;;;18.16;53.22;100270.09;2275149;77;51633;-71
2022/12/07 11:01:48;;;;;;;;;;;;;;;18.26;53.22;100267.93;2287793;78;50573;-72
2022/12/07 11:05:00;;;;;;;;;;;;;;;18.34;53.30;100269.17;2287780;78;51523;-72
2022/12/07 11:08:07;;;;;;;;;;;;;;;18.48;53.12;100261.56;2288333;77;50771;-72
2022/12/07 11:11:16;;;;;;;;;;;;;;;18.52;53.18;100256.64;2250770;78;52349;-72
2022/12/07 11:14:19;;;;;;;;;;;;;;;18.56;53.33;100265.14;2287818;78;50321;-72
2022/12/07 11:17:22;;;;;;;;;;;;;;;18.53;53.58;100264.20;2282447;77;50480;-72
2022/12/07 11:20:42;;;;;;;;;;;;;;;18.48;53.81;100267.44;2280477;77;50489;-72
2022/12/07 11:23:46;;;;;;;;;;;;;;;18.43;54.03;100265.84;2274249;78;50248;-73
2022/12/07 11:26:58;;;;;;;;;;;;;;;18.38;54.23;100268.27;2297430;77;50331;-72
2022/12/07 11:30:02;;;;;;;;;;;;;;;18.33;54.45;100259.98;2302727;77;55201;-72
2022/12/07 11:33:14;;;;;;;;;;;;;;;18.28;54.64;100257.86;2302669;76;55251;-73
2022/12/07 11:36:23;;;;;;;;;;;;;;;18.27;54.79;100254.88;2266787;77;51955;-72
2022/12/07 11:39:32;;;;;;;;;;;;;;;18.20;54.99;100245.94;2302782;77;51459;-72
2022/12/07 11:42:36;;;;;;;;;;;;;;;18.15;55.20;100247.02;2302882;76;50821;-71
2022/12/07 11:45:38;;;;;;;;;;;;;;;18.13;55.37;100249.05;2302454;76;50754;-72
2022/12/07 11:48:41;;;;;;;;;;;;;;;18.10;55.49;100248.09;2260411;77;51239;-73
2022/12/07 11:51:42;;;;;;;;;;;;;;;18.04;55.70;100251.85;2227228;79;50484;-72
2022/12/07 11:54:44;;;;;;;;;;;;;;;18.00;55.79;100242.52;2249504;79;50754;-73
2022/12/07 11:57:47;;;;;;;;;;;;;;;17.91;56.08;100241.00;2249840;79;50748;-73
2022/12/07 12:00:49;;;;;;;;;;;;;;;17.96;56.14;100238.59;2233759;79;52776;-73
2022/12/07 12:03:52;;;;;;;;;;;;;;;18.12;55.91;100238.03;2249537;79;50681;-73
2022/12/07 12:06:53;;;;;;;;;;;;;;;18.20;55.76;100241.92;2263902;77;51597;-72
2022/12/07 12:09:56;;;;;;;;;;;;;;;18.28;55.70;100243.13;2286964;77;51531;-73
2022/12/07 12:13:05;;;;;;;;;;;;;;;18.32;55.71;100244.42;2261256;78;50819;-73
2022/12/07 12:16:09;;;;;;;;;;;;;;;18.38;55.69;100236.13;2267330;78;50765;-72
2022/12/07 12:19:18;;;;;;;;;;;;;;;18.42;55.61;100227.52;2286008;76;50351;-71
2022/12/07 12:22:20;;;;;;;;;;;;;;;18.44;55.67;100222.77;2281848;78;50426;-72
2022/12/07 12:25:24;;;;;;;;;;;;;;;18.52;55.64;100226.34;2261341;78;49688;-72
2022/12/07 12:28:33;;;;;;;;;;;;;;;18.55;55.58;100224.62;2270834;77;50769;-72
2022/12/07 12:31:39;;;;;;;;;;;;;;;18.56;55.52;100220.94;2249439;77;50336;-72
2022/12/07 12:34:41;;;;;;;;;;;;;;;18.53;55.53;100222.66;2286290;77;50055;-71
2022/12/07 12:37:43;;;;;;;;;;;;;;;18.50;55.90;100227.38;2275151;77;52410;-71
2022/12/07 12:40:45;;;;;;;;;;;;;;;18.45;56.17;100223.63;2275122;77;50473;-73
2022/12/07 12:43:52;;;;;;;;;;;;;;;18.41;56.09;100217.81;2239007;78;50784;-71
2022/12/07 12:47:01;;;;;;;;;;;;;;;18.39;56.03;100222.52;2250775;77;50351;-72
2022/12/07 12:50:11;;;;;;;;;;;;;;;18.35;56.33;100212.41;2284677;77;22182;-72
2022/12/07 12:53:13;;;;;;;;;;;;;;;18.35;56.31;100221.78;2288246;77;50343;-72
2022/12/07 12:56:22;;;;;;;;;;;;;;;18.40;56.05;100219.36;2289512;78;51464;-71
2022/12/07 12:59:25;;;;;;;;;;;;;;;18.47;55.99;100205.00;2292550;78;50833;-70
2022/12/07 13:02:29;;;;;;;;;;;;;;;18.56;55.79;100207.02;2267011;77;51741;-73
2022/12/07 13:05:30;;;;;;;;;;;;;;;18.62;55.65;100212.11;2288178;78;50752;-71
2022/12/07 13:08:32;;;;;;;;;;;;;;;18.62;55.61;100213.45;2289354;78;50209;-72
2022/12/07 13:11:38;;;;;;;;;;;;;;;18.64;55.57;100208.73;2275660;77;50418;-72
2022/12/07 13:14:41;;;;;;;;;;;;;;;18.56;55.75;100208.88;2233764;79;52027;-72
2022/12/07 13:17:44;;;;;;;;;;;;;;;18.48;56.01;100202.63;2281317;77;50405;-72
2022/12/07 13:21:00;;;;;;;;;;;;;;;18.52;55.81;100213.77;2287440;78;50298;-73
2022/12/07 13:24:01;;;;;;;;;;;;;;;18.46;55.86;100198.48;2267193;77;51700;-71
2022/12/07 13:27:03;;;;;;;;;;;;;;;18.41;56.17;100206.27;2236109;78;50120;-71
2022/12/07 13:30:06;;;;;;;;;;;;;;;18.32;56.43;100202.91;2250568;79;51652;-71
2022/12/07 13:33:09;;;;;;;;;;;;;;;18.32;56.52;100204.77;2250091;78;51821;-71
2022/12/07 13:36:12;;;;;;;;;;;;;;;18.39;56.32;100197.59;2249960;79;50334;-71
2022/12/07 13:39:25;;;;;;;;;;;;;;;18.48;56.10;100201.80;2267088;77;50655;-70
2022/12/07 13:42:27;;;;;;;;;;;;;;;18.52;56.05;100195.02;2288468;77;51635;-71
2022/12/07 13:48:49;;;;;;;;;;;;;;;18.64;55.71;100192.13;2227081;79;22345;-71
2022/12/07 13:51:51;;;;;;;;;;;;;;;18.65;55.70;100201.85;2248213;79;51502;-70
2022/12/07 13:55:03;;;;;;;;;;;;;;;18.67;55.54;100201.12;2222557;79;50080;-71
2022/12/07 13:58:05;;;;;;;;;;;;;;;18.65;55.53;100203.67;2247936;79;51719;-70
2022/12/07 14:01:06;;;;;;;;;;;;;;;18.59;55.63;100207.14;2223198;79;50743;-70
2022/12/07 14:04:12;;;;;;;;;;;;;;;18.52;55.76;100208.94;2248243;78;50842;-72
2022/12/07 14:07:22;;;;;;;;;;;;;;;18.46;55.88;100220.73;2208189;79;52521;-72
2022/12/07 14:10:24;;;;;;;;;;;;;;;18.42;55.94;100213.27;2259617;78;50652;-72
2022/12/07 14:13:38;;;;;;;;;;;;;;;18.37;56.03;100210.34;2243375;78;50553;-72
2022/12/07 14:16:40;;;;;;;;;;;;;;;18.35;56.04;100204.38;2250662;78;22277;-72
2022/12/07 14:19:46;;;;;;;;;;;;;;;18.38;56.08;100209.34;2224776;78;51755;-72
2022/12/07 14:22:49;;;;;;;;;;;;;;;18.46;55.90;100210.54;2250312;78;50593;-72
2022/12/07 14:25:52;;;;;;;;;;;;;;;18.53;55.78;100210.61;2250567;78;50446;-72
2022/12/07 14:28:53;;;;;;;;;;;;;;;18.57;55.69;100205.16;2250116;78;51478;-71
2022/12/07 14:31:55;;;;;;;;;;;;;;;18.62;55.62;100210.77;2224280;78;52803;-71
2022/12/07 14:34:57;;;;;;;;;;;;;;;18.63;55.54;100208.42;2274785;78;51439;-71
2022/12/07 14:37:59;;;;;;;;;;;;;;;18.65;55.38;100207.70;2250405;78;50685;-71
2022/12/07 14:44:20;;;;;;;;;;;;;;;18.50;55.68;100196.57;2249366;79;22392;-71
2022/12/07 14:47:22;;;;;;;;;;;;;;;18.44;55.81;100191.97;2236834;79;50459;-71
2022/12/07 14:50:24;;;;;;;;;;;;;;;18.40;55.92;100191.23;2249087;79;50286;-71
2022/12/07 14:53:27;;;;;;;;;;;;;;;18.36;55.99;100189.43;2248867;78;51511;-71
2022/12/07 14:56:28;;;;;;;;;;;;;;;18.37;55.96;100200.97;2238768;79;51859;-71
2022/12/07 14:59:30;;;;;;;;;;;;;;;18.37;55.96;100187.09;2236502;78;50670;-71
2022/12/07 15:02:31;;;;;;;;;;;;;;;18.41;55.96;100196.37;2238554;79;50378;-72
2022/12/07 15:05:33;;;;;;;;;;;;;;;18.50;55.79;100186.37;2236105;79;49933;-71
2022/12/07 15:08:35;;;;;;;;;;;;;;;18.53;55.75;100190.52;2236034;78;49930;-71
2022/12/07 15:11:36;;;;;;;;;;;;;;;18.55;55.71;100190.64;2262259;77;50703;-72
2022/12/07 15:14:38;;;;;;;;;;;;;;;18.58;55.64;100182.73;2274613;78;51466;-71
2022/12/07 15:17:39;;;;;;;;;;;;;;;18.63;55.54;100185.65;2288126;78;51483;-70
2022/12/07 15:20:41;;;;;;;;;;;;;;;18.66;55.47;100182.58;2274573;77;50101;-70
2022/12/07 15:23:42;;;;;;;;;;;;;;;18.66;55.39;100190.61;2254596;78;50395;-71
2022/12/07 15:26:44;;;;;;;;;;;;;;;18.62;55.43;100179.44;2300783;77;50279;-70
2022/12/07 15:29:46;;;;;;;;;;;;;;;18.55;55.49;100187.11;2322567;76;50592;-72
2022/12/07 15:32:51;;;;;;;;;;;;;;;18.48;55.54;100191.09;2267227;77;51271;-70
2022/12/07 15:35:52;;;;;;;;;;;;;;;18.42;55.64;100190.50;2322397;76;50285;-72
2022/12/07 15:38:54;;;;;;;;;;;;;;;18.38;55.73;100194.61;2301393;77;50465;-71
2022/12/07 15:41:55;;;;;;;;;;;;;;;18.36;55.76;100192.63;2261645;77;50092;-71
2022/12/07 15:45:03;;;;;;;;;;;;;;;18.35;55.79;100199.84;2248791;79;50426;-71
2022/12/07 15:48:05;;;;;;;;;;;;;;;18.41;55.69;100187.00;2264375;76;50423;-72
2022/12/07 15:51:07;;;;;;;;;;;;;;;18.52;55.58;100190.18;2258987;78;50537;-72